»·PEaware :: ABX2258 KONT-KSAN

ABX2258 :: KONT-KSAN

FLIGHT INFORMATION

Flight Status: Arrived
Operator:
Airborne Express
More flights by this operator :: More flights under this callsign
Pilot: Max W. (2591)
Aircraft: BOEING 747-400 (NO WINGLETS)
(B74D)
More flights by this aircraft type
Origin: KONT Ontario Intl
United States
Destination: KSAN San Diego Intl-Lindbergh
United States
More flights between these airports :: More routes between these airports
Route: +NIKKL1 PDZ V186 HAILE V66 MZB
File this flight plan on PilotEdge
Remarks:
Altitude:
(Current/Filed)
19,000ft
Speed:
(Current/Filed)
450kts
Departed: 03-Jan-18 08:57 PM
Arrived: 03-Jan-18 09:26 PM
Distance/Time
Traveled:
82nm/0:29
Distance/Time
To Go:
Arrived

Flight Plot

Page will automatically refresh every two minutes.

Flight plan parsing failed; only flown route is shown


Map Options




Map Legend


Flown Route
Filed Route
Departure Airport
Arrival Airport
Navaid (VOR, NDB)
Fix

Horizontal Profiles

Position Reports

Time Latitude Longitude Heading Altitude Ground
Speed
03-Jan-18 20:41 34.050124 -117.581311 269 957ft 0kts
03-Jan-18 20:42 34.050124 -117.581311 269 957ft 0kts
03-Jan-18 20:43 34.050124 -117.581311 269 957ft 0kts
03-Jan-18 20:44 34.050124 -117.581311 269 957ft 0kts
03-Jan-18 20:45 34.050124 -117.581311 269 957ft 0kts
03-Jan-18 20:46 34.050124 -117.581311 269 957ft 0kts
03-Jan-18 20:47 34.050124 -117.581311 269 957ft 0kts
03-Jan-18 20:48 34.050124 -117.581311 269 957ft 0kts
03-Jan-18 20:49 34.050124 -117.581311 269 957ft 0kts
03-Jan-18 20:50 34.050124 -117.581311 269 957ft 0kts
03-Jan-18 20:51 34.050124 -117.581311 269 957ft 0kts
03-Jan-18 20:52 34.050124 -117.581311 269 957ft 0kts
03-Jan-18 20:53 34.050124 -117.581311 269 957ft 0kts
03-Jan-18 20:54 34.050124 -117.581311 269 957ft 0kts
03-Jan-18 20:55 34.050124 -117.581311 269 957ft 0kts
03-Jan-18 20:56 34.050124 -117.581311 269 957ft 0kts
03-Jan-18 20:57 34.050124 -117.581311 269 957ft 0kts
03-Jan-18 20:58 34.050124 -117.581311 269 957ft 0kts
03-Jan-18 20:59 34.050124 -117.581313 267 957ft 0kts
03-Jan-18 21:00 34.050097 -117.581377 239 957ft 2kts
03-Jan-18 21:01 34.052421 -117.581201 268 957ft 20kts
03-Jan-18 21:02 34.054875 -117.582999 287 957ft 9kts
03-Jan-18 21:03 34.055005 -117.612972 270 965ft 187kts
03-Jan-18 21:04 34.039777 -117.676956 221 2047ft 223kts
03-Jan-18 21:05 33.975445 -117.683777 154 2584ft 265kts
03-Jan-18 21:06 33.933736 -117.611839 105 4316ft 282kts
03-Jan-18 21:07 33.904174 -117.522619 132 6265ft 294kts
03-Jan-18 21:08 33.838780 -117.462445 146 7021ft 301kts
03-Jan-18 21:09 33.768256 -117.404196 146 8919ft 313kts
03-Jan-18 21:10 33.694530 -117.342549 146 10337ft 340kts
03-Jan-18 21:11 33.612905 -117.274585 146 11629ft 371kts
03-Jan-18 21:12 33.526025 -117.202342 146 13491ft 387kts
03-Jan-18 21:13 33.428479 -117.149689 170 14249ft 389kts
03-Jan-18 21:14 33.321556 -117.128454 171 14954ft 391kts
03-Jan-18 21:15 33.224382 -117.086417 136 13971ft 348kts
03-Jan-18 21:16 33.174868 -116.996072 121 13024ft 314kts
03-Jan-18 21:17 33.130125 -116.908196 121 11553ft 305kts
03-Jan-18 21:18 33.086967 -116.823172 121 10193ft 294kts
03-Jan-18 21:19 33.045477 -116.740267 121 8743ft 286kts
03-Jan-18 21:20 32.983104 -116.709141 180 8015ft 243kts
03-Jan-18 21:21 32.918137 -116.717771 205 8027ft 218kts
03-Jan-18 21:22 32.867763 -116.754747 211 8022ft 213kts
03-Jan-18 21:23 32.816401 -116.790289 202 7914ft 219kts
03-Jan-18 21:24 32.756863 -116.818777 201 6596ft 233kts
03-Jan-18 21:25 32.697243 -116.847312 201 5363ft 229kts
03-Jan-18 21:26 32.667850 -116.900634 271 4793ft 205kts
03-Jan-18 21:27 32.678965 -116.964699 285 3817ft 180kts
03-Jan-18 21:28 32.692552 -117.020609 286 2827ft 173kts
03-Jan-18 21:29 32.705721 -117.074880 286 1917ft 169kts
03-Jan-18 21:30 32.718708 -117.127551 285 1023ft 164kts
03-Jan-18 21:31 32.730874 -117.178568 284 112ft 152kts
03-Jan-18 21:32 32.735653 -117.202008 154 28ft 4kts
03-Jan-18 21:33 32.733089 -117.192294 104 28ft 40kts
03-Jan-18 21:34 32.735078 -117.184469 327 28ft 31kts

Navigation Log

Ident Type
Flight plan parsing failed, navigation log unavailable